Time;durP1;ratioP1;P1;durP2;ratioP2;P2;SDS_P1;SDS_P2;PMS_P1;PMS_P2;Temp;Humidity;BMP_temperature;BMP_pressure;BME280_temperature;BME280_humidity;BME280_pressure;Samples;Min_cycle;Max_cycle;Signal;HPM_P1;HPM_P2
2022/05/14 00:00:24;;;;;;;3.35;2.28;;;10.20;92.40;;;;;;5010387;28;20477;-60
2022/05/14 00:02:50;;;;;;;13.05;2.75;;;10.20;92.50;;;;;;5011475;28;20493;-60
2022/05/14 00:05:20;;;;;;;16.15;3.33;;;10.20;92.70;;;;;;4997266;28;20482;-60
2022/05/14 00:07:47;;;;;;;13.77;3.13;;;10.30;92.50;;;;;;5011506;28;20088;-60
2022/05/14 00:10:14;;;;;;;6.57;2.83;;;10.30;92.40;;;;;;4993993;28;20029;-60
2022/05/14 00:15:25;;;;;;;9.52;2.63;;;10.40;92.30;;;;;;5001198;28;20033;-60
2022/05/14 00:17:51;;;;;;;10.55;2.70;;;10.50;92.10;;;;;;5004318;28;20120;-59
2022/05/14 00:20:17;;;;;;;14.95;4.22;;;10.40;92.20;;;;;;5007648;28;20478;-60
2022/05/14 00:22:43;;;;;;;8.95;2.53;;;10.40;92.30;;;;;;5006009;28;20037;-60
2022/05/14 00:25:10;;;;;;;14.80;3.55;;;10.40;92.40;;;;;;5009900;28;20036;-60
2022/05/14 00:27:43;;;;;;;10.18;2.90;;;10.30;92.40;;;;;;5009534;28;20044;-59
2022/05/14 00:30:12;;;;;;;8.75;3.42;;;10.20;92.20;;;;;;5008560;28;20037;-59
2022/05/14 00:32:38;;;;;;;9.90;3.30;;;10.20;92.10;;;;;;4998744;28;20032;-58
2022/05/14 00:35:05;;;;;;;9.18;2.17;;;10.10;92.10;;;;;;5006488;28;20456;-60
2022/05/14 00:37:31;;;;;;;10.07;2.70;;;10.10;91.80;;;;;;5006890;28;20114;-60
2022/05/14 00:39:59;;;;;;;11.88;3.17;;;9.90;92.20;;;;;;4994175;28;20026;-60
2022/05/14 00:42:25;;;;;;;7.97;2.50;;;9.90;92.20;;;;;;4998224;28;20041;-61
2022/05/14 00:44:52;;;;;;;11.05;2.78;;;9.90;92.50;;;;;;5011581;28;20029;-60
2022/05/14 00:47:19;;;;;;;12.48;3.55;;;9.80;92.20;;;;;;5009040;28;20053;-60
2022/05/14 00:49:45;;;;;;;11.95;2.92;;;9.80;91.80;;;;;;5005637;28;20040;-59
2022/05/14 00:52:17;;;;;;;8.98;2.28;;;9.70;92.10;;;;;;4993123;28;20535;-60
2022/05/14 00:54:52;;;;;;;10.90;2.83;;;9.70;91.90;;;;;;5002754;28;20026;-59
2022/05/14 00:57:24;;;;;;;10.13;2.45;;;9.70;92.00;;;;;;5007753;28;20049;-59
2022/05/14 00:59:50;;;;;;;6.93;2.30;;;9.70;92.10;;;;;;5011286;28;20033;-59
2022/05/14 01:02:17;;;;;;;13.30;2.80;;;9.70;92.00;;;;;;4999418;28;20449;-59
2022/05/14 01:04:44;;;;;;;8.70;2.45;;;9.70;91.90;;;;;;5004066;28;20386;-59
2022/05/14 01:07:19;;;;;;;8.27;2.40;;;9.70;91.70;;;;;;4998561;28;20025;-60
2022/05/14 01:09:49;;;;;;;13.00;2.55;;;9.60;91.70;;;;;;4995716;28;20021;-60
2022/05/14 01:12:17;;;;;;;9.70;2.47;;;9.60;92.00;;;;;;5008397;28;20030;-60
2022/05/14 01:14:43;;;;;;;8.52;2.25;;;9.50;92.00;;;;;;5010791;28;20030;-60
2022/05/14 01:17:09;;;;;;;12.48;2.55;;;9.60;92.30;;;;;;5010817;28;20041;-60
2022/05/14 01:19:35;;;;;;;7.25;2.55;;;9.60;91.90;;;;;;5006913;28;20038;-61
2022/05/14 01:22:30;;;;;;;9.00;2.60;;;9.60;91.80;;;;;;5005039;28;20034;-60
2022/05/14 01:27:49;;;;;;;7.57;2.30;;;9.60;91.90;;;;;;5003536;28;20133;-60
2022/05/14 01:30:16;;;;;;;8.63;1.95;;;9.60;92.00;;;;;;5003453;28;20053;-60
2022/05/14 01:32:44;;;;;;;13.00;2.83;;;9.60;92.00;;;;;;5005642;28;20026;-60
2022/05/14 01:35:13;;;;;;;8.32;2.20;;;9.70;92.00;;;;;;4998775;28;20022;-60
2022/05/14 01:37:38;;;;;;;14.77;3.60;;;9.90;91.80;;;;;;5010025;28;20478;-60
2022/05/14 01:40:05;;;;;;;11.55;2.95;;;10.10;90.80;;;;;;5002578;28;20034;-61
2022/05/14 01:42:30;;;;;;;7.32;1.92;;;10.10;90.60;;;;;;4998025;28;20125;-61
2022/05/14 01:44:56;;;;;;;7.68;2.88;;;10.30;89.70;;;;;;4994879;28;20104;-60
2022/05/14 01:47:22;;;;;;;11.77;2.03;;;10.30;89.60;;;;;;5000897;28;20045;-60
2022/05/14 01:49:47;;;;;;;11.43;2.25;;;10.50;88.30;;;;;;5002405;28;20030;-60
2022/05/14 01:52:13;;;;;;;10.35;2.38;;;10.50;87.90;;;;;;4996600;28;20128;-60
2022/05/14 01:54:39;;;;;;;8.25;2.50;;;10.60;86.70;;;;;;5010466;28;20034;-61
2022/05/14 01:57:05;;;;;;;13.75;2.35;;;10.70;86.50;;;;;;5009642;28;20042;-60
2022/05/14 01:59:30;;;;;;;14.43;2.72;;;10.70;86.00;;;;;;5007166;28;20140;-60
2022/05/14 02:01:56;;;;;;;10.05;2.22;;;10.70;85.60;;;;;;5010087;28;20037;-61
2022/05/14 02:04:22;;;;;;;7.93;2.33;;;10.70;86.40;;;;;;5008357;28;20026;-60
2022/05/14 02:06:48;;;;;;;8.15;2.25;;;10.60;87.00;;;;;;5009975;28;20109;-61
2022/05/14 02:09:14;;;;;;;12.18;2.97;;;10.40;87.40;;;;;;5006167;28;20542;-60
2022/05/14 02:11:42;;;;;;;15.73;2.90;;;10.30;88.50;;;;;;5009175;28;20030;-60
2022/05/14 02:14:08;;;;;;;12.75;2.35;;;10.30;88.30;;;;;;5009420;28;20384;-60
2022/05/14 02:16:34;;;;;;;12.38;2.63;;;10.20;88.90;;;;;;5008122;28;20033;-60
2022/05/14 02:19:00;;;;;;;13.38;2.60;;;10.30;88.00;;;;;;5009732;28;20029;-59
2022/05/14 02:21:28;;;;;;;10.18;2.58;;;10.30;88.50;;;;;;5007118;28;20022;-59
2022/05/14 02:23:54;;;;;;;11.45;2.65;;;10.20;88.50;;;;;;5009938;28;20486;-59
2022/05/14 02:26:20;;;;;;;8.73;1.60;;;10.30;88.40;;;;;;5006111;28;20023;-60
2022/05/14 02:28:46;;;;;;;16.52;3.30;;;10.40;87.60;;;;;;5008373;28;20100;-60
2022/05/14 02:31:13;;;;;;;12.20;3.00;;;10.40;87.20;;;;;;5013549;28;20550;-60
2022/05/14 02:33:39;;;;;;;16.63;2.63;;;10.50;87.00;;;;;;5007168;28;20033;-59
2022/05/14 02:36:07;;;;;;;9.63;1.65;;;10.40;87.00;;;;;;5005866;28;20027;-61
2022/05/14 02:38:33;;;;;;;13.25;2.67;;;10.40;87.20;;;;;;5011403;28;20552;-60
2022/05/14 02:40:59;;;;;;;15.88;3.30;;;10.40;87.50;;;;;;5013374;28;20057;-60
2022/05/14 02:43:25;;;;;;;9.50;2.83;;;10.30;88.50;;;;;;5005449;28;20037;-62
2022/05/14 02:45:51;;;;;;;8.10;2.10;;;10.10;87.80;;;;;;5011812;28;20049;-60
2022/05/14 02:48:17;;;;;;;9.02;2.90;;;9.90;88.20;;;;;;5011501;28;20022;-61
2022/05/14 02:50:42;;;;;;;12.85;2.65;;;9.70;89.80;;;;;;5013041;28;20054;-60
2022/05/14 02:53:09;;;;;;;12.45;2.20;;;9.60;89.50;;;;;;5013188;28;20112;-60
2022/05/14 02:55:35;;;;;;;10.43;2.20;;;9.60;90.20;;;;;;5010207;28;20022;-60
2022/05/14 02:58:00;;;;;;;5.47;1.70;;;9.50;90.50;;;;;;5012625;28;20040;-61
2022/05/14 03:00:26;;;;;;;16.85;3.50;;;9.40;90.80;;;;;;5011571;28;20041;-61
2022/05/14 03:02:53;;;;;;;10.50;2.10;;;9.40;90.70;;;;;;5011770;28;20076;-60
2022/05/14 03:05:21;;;;;;;5.68;2.20;;;9.50;90.90;;;;;;5010993;28;20038;-60
2022/05/14 03:07:47;;;;;;;7.57;2.75;;;9.50;90.90;;;;;;5010991;28;20409;-60
2022/05/14 03:10:13;;;;;;;7.63;2.40;;;9.50;90.90;;;;;;5013196;28;20034;-60
2022/05/14 03:12:39;;;;;;;10.93;2.38;;;9.50;90.90;;;;;;5010795;28;20508;-60
2022/05/14 03:15:07;;;;;;;8.98;2.53;;;9.60;91.20;;;;;;4998214;28;20030;-60
2022/05/14 03:17:35;;;;;;;13.10;2.50;;;9.70;91.10;;;;;;5002568;28;20519;-60
2022/05/14 03:20:08;;;;;;;15.68;2.53;;;9.80;91.10;;;;;;5012180;28;20057;-60
2022/05/14 03:22:34;;;;;;;;;;;9.80;91.00;;;;;;5010466;28;20034;-60
2022/05/14 03:24:59;;;;;;;8.10;2.22;;;9.80;90.90;;;;;;5011766;28;19909;-60
2022/05/14 03:27:25;;;;;;;13.98;2.92;;;9.80;90.90;;;;;;5010629;28;20034;-60
2022/05/14 03:29:51;;;;;;;12.82;2.17;;;9.80;90.80;;;;;;5012872;28;20037;-61
2022/05/14 03:32:17;;;;;;;9.75;2.72;;;9.80;90.70;;;;;;5010117;28;20363;-59
2022/05/14 03:34:43;;;;;;;10.38;2.38;;;9.80;91.00;;;;;;5000255;28;20030;-59
2022/05/14 03:37:08;;;;;;;13.27;2.13;;;9.90;90.90;;;;;;5008293;28;20489;-59
2022/05/14 03:39:34;;;;;;;16.65;3.45;;;9.80;91.00;;;;;;5006601;28;20026;-59
2022/05/14 03:42:00;;;;;;;12.05;2.30;;;9.80;91.00;;;;;;5020919;23;20117;-54
2022/05/14 03:44:26;;;;;;;7.70;1.92;;;9.80;91.10;;;;;;5001203;28;20472;-49
2022/05/14 03:46:51;;;;;;;9.02;3.08;;;9.70;91.50;;;;;;5012668;28;20026;-54
2022/05/14 03:49:17;;;;;;;12.82;2.67;;;9.60;91.60;;;;;;5000856;28;20057;-53
2022/05/14 03:51:43;;;;;;;10.40;2.22;;;9.70;91.50;;;;;;5006204;28;20044;-53
2022/05/14 03:54:09;;;;;;;7.63;2.08;;;9.60;91.30;;;;;;5011456;28;20033;-55
2022/05/14 03:56:39;;;;;;;10.18;2.55;;;9.60;91.40;;;;;;4998551;28;20026;-55
2022/05/14 03:59:06;;;;;;;14.15;3.92;;;9.60;91.50;;;;;;5000824;28;20121;-54
2022/05/14 04:01:32;;;;;;;15.00;3.15;;;9.60;91.50;;;;;;5001379;28;20022;-53
2022/05/14 04:03:57;;;;;;;10.85;2.00;;;9.60;91.50;;;;;;4997620;28;20117;-52
2022/05/14 04:06:23;;;;;;;13.57;4.22;;;9.50;91.60;;;;;;5007392;28;20041;-50
2022/05/14 04:08:49;;;;;;;12.25;2.80;;;9.50;91.50;;;;;;5011052;28;20525;-50
2022/05/14 04:11:16;;;;;;;9.40;2.92;;;9.40;91.40;;;;;;5006580;28;20092;-53
2022/05/14 04:13:42;;;;;;;14.38;2.78;;;9.30;91.60;;;;;;5011735;28;20076;-55
2022/05/14 04:16:07;;;;;;;9.95;2.33;;;9.20;91.80;;;;;;5011756;28;20037;-54
2022/05/14 04:18:33;;;;;;;8.73;2.92;;;9.00;91.90;;;;;;5007900;28;20065;-54
2022/05/14 04:21:00;;;;;;;11.88;2.95;;;9.00;92.10;;;;;;5009274;28;20052;-55
2022/05/14 04:23:30;;;;;;;11.23;2.53;;;8.90;92.20;;;;;;5000627;28;20029;-53
2022/05/14 04:25:57;;;;;;;8.00;2.13;;;8.80;92.30;;;;;;5007631;28;20030;-53
2022/05/14 04:28:23;;;;;;;15.05;3.40;;;8.70;92.30;;;;;;4999588;28;20026;-53
2022/05/14 04:30:49;;;;;;;9.93;3.45;;;8.70;92.60;;;;;;5010565;28;20042;-53
2022/05/14 04:33:17;;;;;;;9.60;2.78;;;8.60;92.60;;;;;;4995266;28;20024;-51
2022/05/14 04:35:43;;;;;;;8.57;2.72;;;8.60;92.70;;;;;;5004346;28;20076;-54
2022/05/14 04:38:09;;;;;;;12.80;3.25;;;8.50;92.70;;;;;;5010710;28;20435;-55
2022/05/14 04:40:35;;;;;;;10.30;3.78;;;8.50;92.80;;;;;;5006958;28;20040;-54
2022/05/14 04:43:04;;;;;;;7.25;2.80;;;8.50;92.70;;;;;;5003372;28;20510;-54
2022/05/14 04:45:30;;;;;;;12.90;3.03;;;8.40;92.80;;;;;;5009353;28;20441;-54
2022/05/14 04:47:56;;;;;;;15.55;3.15;;;8.40;92.90;;;;;;5010210;28;20532;-54
2022/05/14 04:50:22;;;;;;;12.43;3.30;;;8.40;93.10;;;;;;5008634;28;20033;-54
2022/05/14 04:52:47;;;;;;;11.48;2.78;;;8.40;93.10;;;;;;4998636;28;20041;-54
2022/05/14 04:55:13;;;;;;;12.50;3.15;;;8.50;93.10;;;;;;5008790;28;20470;-51
2022/05/14 04:57:43;;;;;;;10.25;3.67;;;8.60;92.80;;;;;;5000380;28;20056;-53
2022/05/14 05:00:10;;;;;;;6.45;2.22;;;8.60;92.70;;;;;;5004261;28;20085;-55
2022/05/14 05:05:20;;;;;;;10.75;4.57;;;8.80;92.50;;;;;;5000589;28;20033;-52
2022/05/14 05:07:47;;;;;;;8.82;3.30;;;8.80;92.40;;;;;;5011178;28;20017;-52
2022/05/14 05:10:13;;;;;;;9.68;3.00;;;8.90;92.30;;;;;;5010108;28;20177;-53
2022/05/14 05:12:39;;;;;;;9.57;3.35;;;9.00;92.10;;;;;;5002602;28;20034;-52
2022/05/14 05:15:05;;;;;;;11.48;3.15;;;9.10;91.80;;;;;;5008242;28;20030;-53
2022/05/14 05:17:31;;;;;;;10.48;3.50;;;9.10;91.80;;;;;;5001445;28;20385;-52
2022/05/14 05:19:57;;;;;;;7.60;3.28;;;9.20;91.50;;;;;;5009873;28;20441;-52
2022/05/14 05:22:23;;;;;;;13.38;3.60;;;9.30;91.30;;;;;;5007209;28;20030;-51
2022/05/14 05:24:49;;;;;;;8.00;3.13;;;9.40;91.30;;;;;;5010802;28;20068;-53
2022/05/14 05:27:14;;;;;;;12.73;4.15;;;9.40;91.10;;;;;;5008215;28;20065;-52
2022/05/14 05:29:40;;;;;;;6.00;2.92;;;9.50;91.10;;;;;;5010233;28;20033;-54
2022/05/14 05:32:06;;;;;;;5.20;2.70;;;9.60;91.10;;;;;;5010328;28;20374;-53
2022/05/14 05:34:32;;;;;;;8.73;3.30;;;9.70;90.90;;;;;;5001828;28;20113;-54
2022/05/14 05:36:58;;;;;;;10.23;3.83;;;9.80;90.80;;;;;;5007299;28;20371;-53
2022/05/14 05:39:24;;;;;;;11.65;2.80;;;10.00;90.50;;;;;;5008682;28;20080;-52
2022/05/14 05:41:49;;;;;;;12.90;3.53;;;10.00;90.30;;;;;;5013316;28;20033;-56
2022/05/14 05:44:15;;;;;;;9.05;2.83;;;10.10;90.20;;;;;;5008766;28;20077;-52
2022/05/14 05:46:41;;;;;;;6.60;2.60;;;10.10;90.00;;;;;;5015686;28;20492;-54
2022/05/14 05:49:07;;;;;;;10.90;2.63;;;10.10;89.90;;;;;;5014481;28;20072;-54
2022/05/14 05:51:33;;;;;;;8.20;2.50;;;10.20;90.10;;;;;;5010216;28;20033;-54
2022/05/14 05:56:56;;;;;;;12.27;4.07;;;10.40;89.90;;;;;;5013451;28;20033;-54
2022/05/14 05:59:23;;;;;;;7.28;2.50;;;10.40;89.70;;;;;;5017762;28;20062;-54
2022/05/14 06:01:50;;;;;;;8.00;2.97;;;10.60;89.10;;;;;;5009737;28;20460;-52
2022/05/14 06:04:16;;;;;;;8.65;3.63;;;10.70;88.80;;;;;;5012572;28;20497;-54
2022/05/14 06:06:42;;;;;;;6.88;2.58;;;10.90;88.70;;;;;;5009960;28;20030;-54
2022/05/14 06:09:14;;;;;;;8.32;2.67;;;11.00;88.10;;;;;;5011339;28;20029;-55
2022/05/14 06:11:41;;;;;;;9.43;2.90;;;11.10;87.70;;;;;;5010410;28;20025;-55
2022/05/14 06:14:07;;;;;;;6.57;2.05;;;11.30;87.40;;;;;;5009869;28;20078;-55
2022/05/14 06:16:33;;;;;;;8.32;2.78;;;11.40;87.10;;;;;;5007891;28;21556;-51
2022/05/14 06:18:59;;;;;;;7.97;3.53;;;11.50;87.00;;;;;;5009603;28;20096;-53
2022/05/14 06:21:25;;;;;;;7.63;2.67;;;11.70;86.30;;;;;;5020764;28;20026;-54
2022/05/14 06:23:51;;;;;;;6.93;2.70;;;11.80;86.30;;;;;;5009662;28;20470;-54
2022/05/14 06:26:17;;;;;;;10.43;3.10;;;11.90;85.90;;;;;;5006903;28;20032;-54
2022/05/14 06:28:43;;;;;;;8.93;2.40;;;12.10;85.50;;;;;;5009314;28;20034;-52
2022/05/14 06:31:08;;;;;;;12.98;2.90;;;12.20;85.30;;;;;;5011269;28;20034;-54
2022/05/14 06:33:34;;;;;;;13.45;2.30;;;12.40;84.10;;;;;;5010403;28;20049;-53
2022/05/14 06:36:00;;;;;;;11.65;2.78;;;12.40;83.80;;;;;;5014614;28;20034;-54
2022/05/14 06:38:27;;;;;;;14.18;2.58;;;12.50;83.10;;;;;;5007487;28;20042;-53
2022/05/14 06:40:53;;;;;;;15.23;2.53;;;12.60;82.70;;;;;;5014354;28;20036;-52
2022/05/14 06:43:19;;;;;;;11.95;2.35;;;12.70;82.10;;;;;;5007495;28;20136;-52
2022/05/14 06:45:45;;;;;;;12.98;3.08;;;12.70;82.30;;;;;;5020401;28;20116;-53
2022/05/14 06:48:12;;;;;;;15.90;2.95;;;12.80;82.10;;;;;;5010572;28;20033;-55
2022/05/14 06:50:42;;;;;;;12.63;2.95;;;12.90;81.90;;;;;;5006152;28;20092;-52
2022/05/14 06:53:09;;;;;;;8.55;3.08;;;12.90;81.80;;;;;;5004130;28;20022;-54
2022/05/14 06:55:38;;;;;;;12.25;2.20;;;12.80;82.10;;;;;;5007725;28;20033;-53
2022/05/14 06:58:05;;;;;;;11.18;2.60;;;12.80;82.10;;;;;;5006790;28;20038;-55
2022/05/14 07:00:31;;;;;;;18.00;3.03;;;12.90;81.90;;;;;;5000920;28;20477;-54
2022/05/14 07:06:37;;;;;;;12.07;2.60;;;12.80;82.50;;;;;;5012370;28;20026;-55
2022/05/14 07:08:27;;;;;;;11.48;2.47;;;12.70;83.30;;;;;;5006747;28;20045;-53
2022/05/14 07:10:53;;;;;;;10.55;2.75;;;12.70;83.50;;;;;;5008754;28;20022;-55
2022/05/14 07:13:19;;;;;;;15.77;2.35;;;12.60;84.00;;;;;;5010831;28;20041;-53
2022/05/14 07:15:44;;;;;;;12.82;2.78;;;12.50;84.30;;;;;;5010295;28;20022;-52
2022/05/14 07:18:10;;;;;;;17.17;3.97;;;12.50;84.80;;;;;;5006021;28;20501;-53
2022/05/14 07:20:36;;;;;;;14.82;3.13;;;12.30;86.30;;;;;;5011319;28;20098;-53
2022/05/14 07:23:02;;;;;;;15.27;2.58;;;12.20;85.90;;;;;;5012217;28;20064;-53
2022/05/14 07:25:28;;;;;;;18.48;3.22;;;12.30;86.80;;;;;;5009884;28;20469;-53
2022/05/14 07:27:54;;;;;;;12.82;2.58;;;12.40;87.00;;;;;;4999735;28;20181;-55
2022/05/14 07:30:20;;;;;;;17.00;3.15;;;12.40;86.50;;;;;;5010725;28;20486;-55
2022/05/14 07:32:46;;;;;;;11.18;3.17;;;12.50;86.60;;;;;;5012565;28;20041;-52
2022/05/14 07:35:15;;;;;;;23.27;4.20;;;12.50;86.60;;;;;;5009429;28;20018;-52
2022/05/14 07:37:48;;;;;;;18.30;3.80;;;12.60;86.90;;;;;;5010919;28;20037;-54
2022/05/14 07:40:18;;;;;;;16.85;3.80;;;12.60;86.40;;;;;;5011063;28;20401;-54
2022/05/14 07:42:58;;;;;;;8.80;3.03;;;12.60;86.10;;;;;;5007699;28;20037;-54
2022/05/14 07:45:37;;;;;;;23.23;2.83;;;12.60;85.40;;;;;;5003118;28;20148;-52
2022/05/14 07:48:06;;;;;;;19.00;3.85;;;12.70;85.80;;;;;;5011522;28;20029;-54
2022/05/14 07:50:33;;;;;;;15.65;3.25;;;12.80;86.50;;;;;;5008602;28;20513;-54
2022/05/14 07:52:59;;;;;;;16.33;3.83;;;12.90;86.00;;;;;;5010806;28;20029;-54
2022/05/14 07:55:24;;;;;;;13.40;3.58;;;12.90;86.00;;;;;;5009197;28;20072;-54
2022/05/14 07:57:50;;;;;;;18.95;4.55;;;12.90;85.70;;;;;;5011174;28;20498;-54
2022/05/14 08:00:16;;;;;;;16.02;3.53;;;13.00;85.60;;;;;;5004927;28;20386;-54
2022/05/14 08:02:44;;;;;;;20.27;3.35;;;13.00;85.50;;;;;;5011768;28;20036;-52
2022/05/14 08:05:12;;;;;;;14.63;3.72;;;13.20;86.00;;;;;;5011355;28;20036;-53
2022/05/14 08:07:38;;;;;;;12.88;4.05;;;13.30;85.90;;;;;;5010185;28;20394;-52
2022/05/14 08:10:06;;;;;;;17.65;4.38;;;13.50;83.20;;;;;;5010118;28;20110;-55
2022/05/14 08:12:38;;;;;;;18.02;3.85;;;13.50;82.20;;;;;;5008233;28;20076;-54
2022/05/14 08:15:05;;;;;;;13.60;3.67;;;13.60;81.60;;;;;;5011477;28;20022;-53
2022/05/14 08:17:31;;;;;;;14.93;3.85;;;13.70;80.50;;;;;;5009896;28;20038;-54
2022/05/14 08:19:56;;;;;;;11.38;3.30;;;13.80;79.60;;;;;;5009486;28;20037;-55
2022/05/14 08:25:07;;;;;;;16.25;3.78;;;13.80;79.30;;;;;;5011789;28;20095;-55
2022/05/14 08:27:44;;;;;;;10.73;2.97;;;13.90;78.90;;;;;;5008209;28;20385;-51
2022/05/14 08:30:14;;;;;;;13.00;3.30;;;14.00;78.80;;;;;;5004959;28;20038;-53
2022/05/14 08:32:40;;;;;;;12.07;3.25;;;14.10;77.70;;;;;;5005706;28;20038;-55
2022/05/14 08:35:06;;;;;;;8.63;3.15;;;14.10;77.20;;;;;;5011330;28;20041;-53
2022/05/14 08:37:32;;;;;;;7.93;2.30;;;14.20;76.80;;;;;;5008805;28;20034;-53
2022/05/14 08:39:57;;;;;;;14.38;2.95;;;14.30;77.30;;;;;;5010017;28;20037;-54
2022/05/14 08:42:24;;;;;;;10.55;2.30;;;14.30;76.50;;;;;;5006315;28;20061;-53
2022/05/14 08:44:51;;;;;;;12.20;2.53;;;14.50;76.90;;;;;;5011434;28;20103;-56
2022/05/14 08:47:32;;;;;;;11.45;2.60;;;14.60;76.40;;;;;;5006851;28;20538;-56
2022/05/14 08:49:58;;;;;;;9.07;2.95;;;14.70;76.00;;;;;;5009899;28;20037;-55
2022/05/14 08:52:26;;;;;;;15.60;2.30;;;14.70;74.50;;;;;;5007015;28;20029;-55
2022/05/14 08:55:00;;;;;;;10.30;1.83;;;14.80;74.00;;;;;;5008909;28;20508;-54
2022/05/14 08:57:56;;;;;;;9.20;1.88;;;14.70;74.40;;;;;;5003111;28;20482;-55
2022/05/14 09:00:22;;;;;;;9.73;2.08;;;14.70;74.40;;;;;;5004914;28;20045;-54
2022/05/14 09:02:54;;;;;;;12.52;2.45;;;14.60;74.30;;;;;;5009593;28;20067;-52
2022/05/14 09:05:27;;;;;;;10.85;2.63;;;14.60;74.80;;;;;;5012926;28;20374;-54
2022/05/14 09:07:53;;;;;;;10.68;2.47;;;14.60;73.90;;;;;;5005302;28;20042;-55
2022/05/14 09:10:32;;;;;;;10.82;1.92;;;14.70;74.50;;;;;;5007957;28;20383;-54
2022/05/14 09:13:09;;;;;;;10.48;2.60;;;14.70;75.10;;;;;;5008987;28;20033;-54
2022/05/14 09:15:41;;;;;;;13.18;2.80;;;14.90;72.70;;;;;;5018418;28;20556;-54
2022/05/14 09:18:12;;;;;;;10.43;2.42;;;14.90;73.30;;;;;;5008575;28;20109;-54
2022/05/14 09:21:05;;;;;;;8.98;2.33;;;15.00;73.10;;;;;;5014211;28;20386;-55
2022/05/14 09:23:38;;;;;;;10.23;2.03;;;15.10;72.30;;;;;;5004775;28;20137;-56
2022/05/14 09:26:14;;;;;;;8.13;1.70;;;15.20;70.40;;;;;;5002842;28;20065;-52
2022/05/14 09:28:46;;;;;;;13.50;2.15;;;15.20;70.80;;;;;;5004092;28;20034;-54
2022/05/14 09:31:30;;;;;;;13.30;2.22;;;15.20;70.60;;;;;;4997663;28;20026;-51
2022/05/14 09:34:16;;;;;;;17.88;1.98;;;15.20;69.00;;;;;;5022080;28;20092;-54
2022/05/14 09:36:44;;;;;;;13.00;1.95;;;15.30;69.00;;;;;;5005619;28;20022;-59
2022/05/14 09:39:15;;;;;;;17.65;1.90;;;15.40;70.00;;;;;;5011285;28;20037;-52
2022/05/14 09:41:45;;;;;;;12.52;2.05;;;15.50;68.70;;;;;;5010274;28;20466;-54
2022/05/14 09:44:21;;;;;;;16.48;3.05;;;15.70;68.30;;;;;;5007345;28;20050;-55
2022/05/14 09:46:48;;;;;;;14.25;3.20;;;15.60;68.90;;;;;;5009815;28;20030;-54
2022/05/14 09:49:21;;;;;;;11.27;1.80;;;15.70;68.70;;;;;;5018145;28;20025;-54
2022/05/14 09:52:01;;;;;;;11.90;2.47;;;15.80;68.90;;;;;;5025245;28;20042;-54
2022/05/14 09:54:43;;;;;;;6.72;1.42;;;15.70;66.60;;;;;;4998517;28;20034;-53
2022/05/14 09:57:42;;;;;;;7.90;1.65;;;15.80;67.10;;;;;;5009650;28;20137;-56
2022/05/14 10:00:25;;;;;;;19.88;3.10;;;15.90;67.40;;;;;;5011892;28;20549;-54
2022/05/14 10:02:57;;;;;;;14.35;1.75;;;16.10;67.20;;;;;;5003278;28;20033;-54
2022/05/14 10:05:50;;;;;;;13.10;1.77;;;16.10;64.90;;;;;;5007884;28;20037;-54
2022/05/14 10:08:54;;;;;;;12.98;2.58;;;16.20;64.90;;;;;;5016218;28;20359;-54
2022/05/14 10:11:26;;;;;;;13.38;2.50;;;16.30;64.80;;;;;;4990717;28;20027;-54
2022/05/14 10:14:13;;;;;;;8.48;2.17;;;16.20;65.00;;;;;;4986322;28;20104;-52
2022/05/14 10:17:05;;;;;;;13.25;2.70;;;16.20;65.00;;;;;;4978107;28;20565;-54
2022/05/14 10:19:52;;;;;;;8.85;1.65;;;16.50;64.00;;;;;;4985993;28;20074;-55
2022/05/14 10:28:30;;;;;;;11.07;2.30;;;16.80;62.00;;;;;;4975295;28;20037;-55
2022/05/14 10:31:10;;;;;;;8.68;1.80;;;17.00;61.30;;;;;;4986408;28;20091;-55
2022/05/14 10:33:36;;;;;;;11.57;2.42;;;16.90;60.00;;;;;;4990162;28;20097;-53
2022/05/14 10:36:30;;;;;;;10.15;1.70;;;17.00;60.10;;;;;;4976481;28;20058;-56
2022/05/14 10:39:11;;;;;;;5.47;1.38;;;17.20;59.10;;;;;;4985224;28;20042;-56
2022/05/14 10:41:52;;;;;;;8.43;2.37;;;17.30;59.10;;;;;;4989060;28;20108;-55
2022/05/14 10:44:30;;;;;;;7.60;1.90;;;17.40;58.60;;;;;;4987903;28;20046;-55
2022/05/14 10:47:00;;;;;;;9.98;1.88;;;17.40;59.20;;;;;;5012711;28;20398;-55
2022/05/14 10:49:59;;;;;;;7.22;2.47;;;17.20;59.40;;;;;;5027839;28;20091;-55
2022/05/14 10:52:25;;;;;;;12.18;1.80;;;17.30;59.50;;;;;;5011426;28;20044;-53
2022/05/14 10:54:51;;;;;;;19.77;2.00;;;17.40;59.00;;;;;;5015987;28;20041;-55
2022/05/14 10:57:19;;;;;;;13.85;2.10;;;17.50;58.80;;;;;;5011088;28;20037;-54
2022/05/14 10:59:53;;;;;;;10.38;1.70;;;17.90;57.50;;;;;;5016340;28;20069;-53
2022/05/14 11:02:38;;;;;;;9.77;2.05;;;18.10;57.00;;;;;;5017586;28;20033;-53
2022/05/14 11:05:06;;;;;;;8.85;2.10;;;18.40;56.20;;;;;;5019231;28;20499;-54
2022/05/14 11:07:35;;;;;;;5.47;1.80;;;18.90;55.40;;;;;;5016036;28;20141;-56
2022/05/14 11:10:14;;;;;;;6.45;1.60;;;18.70;54.90;;;;;;5014622;28;20136;-55
2022/05/14 11:12:41;;;;;;;10.20;1.63;;;19.20;54.90;;;;;;5004333;28;20084;-55
2022/05/14 11:15:19;;;;;;;9.70;1.95;;;19.30;53.90;;;;;;5024287;28;20025;-55
2022/05/14 11:17:45;;;;;;;12.70;1.75;;;19.40;53.30;;;;;;5012892;28;20076;-55
2022/05/14 11:20:17;;;;;;;5.45;1.40;;;19.40;53.10;;;;;;5021134;28;20060;-55
2022/05/14 11:22:49;;;;;;;15.27;2.28;;;19.70;53.20;;;;;;5012630;28;20036;-53
2022/05/14 11:25:19;;;;;;;9.85;2.05;;;20.20;52.20;;;;;;5012081;28;20505;-54
2022/05/14 11:28:11;;;;;;;11.32;2.33;;;19.90;51.30;;;;;;5012129;28;20117;-55
2022/05/14 11:30:41;;;;;;;12.23;1.95;;;20.40;50.90;;;;;;5010312;28;20096;-55
2022/05/14 11:33:18;;;;;;;8.02;1.58;;;21.00;49.60;;;;;;5012665;28;20544;-55
2022/05/14 11:35:45;;;;;;;9.70;2.10;;;20.80;49.20;;;;;;5010885;28;20125;-55
2022/05/14 11:38:29;;;;;;;9.48;2.33;;;20.90;48.90;;;;;;5010781;28;20429;-55
2022/05/14 11:41:14;;;;;;;12.70;2.40;;;21.00;49.00;;;;;;5017635;28;20092;-55
2022/05/14 11:43:43;;;;;;;6.72;2.13;;;21.30;47.70;;;;;;5004834;28;20557;-55
2022/05/14 11:46:32;;;;;;;9.38;2.33;;;21.50;46.80;;;;;;5012769;28;20048;-54
2022/05/14 11:49:22;;;;;;;9.68;2.08;;;21.40;46.90;;;;;;5016363;28;20022;-56
2022/05/14 11:52:10;;;;;;;8.60;2.28;;;21.30;47.20;;;;;;5011692;28;20065;-55
2022/05/14 11:54:57;;;;;;;9.73;1.70;;;21.30;47.50;;;;;;5012824;28;20041;-55
2022/05/14 11:57:38;;;;;;;7.35;1.63;;;21.70;46.40;;;;;;5018864;28;20025;-55
2022/05/14 12:00:10;;;;;;;9.05;1.67;;;21.80;46.20;;;;;;5012711;28;20117;-55
2022/05/14 12:02:48;;;;;;;4.35;1.48;;;21.60;46.40;;;;;;5014268;28;20033;-55
2022/05/14 12:05:31;;;;;;;5.97;1.30;;;21.50;47.00;;;;;;5014891;28;20033;-54
2022/05/14 12:08:15;;;;;;;9.77;2.03;;;21.50;46.80;;;;;;5015442;28;20058;-55
2022/05/14 12:10:44;;;;;;;7.47;2.00;;;21.80;46.60;;;;;;5012868;28;20033;-55
2022/05/14 12:13:13;;;;;;;11.15;2.45;;;21.70;46.00;;;;;;5020893;28;20492;-55
2022/05/14 12:15:47;;;;;;;10.30;2.53;;;21.70;46.20;;;;;;5017060;28;20033;-55
2022/05/14 12:18:15;;;;;;;10.50;2.17;;;22.10;45.60;;;;;;5012235;28;20068;-56
2022/05/14 12:20:43;;;;;;;7.97;1.58;;;22.30;45.10;;;;;;5003638;28;20484;-55
2022/05/14 12:23:17;;;;;;;8.75;1.73;;;21.70;44.90;;;;;;5014402;28;20400;-53
2022/05/14 12:25:48;;;;;;;9.05;1.95;;;22.10;44.90;;;;;;5016756;28;20060;-55
2022/05/14 12:28:26;;;;;;;7.60;2.20;;;23.00;43.20;;;;;;5016729;28;20029;-54
2022/05/14 12:34:02;;;;;;;10.43;1.70;;;23.10;41.70;;;;;;5014562;28;20503;-57
2022/05/14 12:36:55;;;;;;;4.75;1.40;;;22.90;42.60;;;;;;5006557;28;20493;-56
2022/05/14 12:39:27;;;;;;;9.43;1.67;;;23.40;41.40;;;;;;5016618;28;20409;-55
2022/05/14 12:42:08;;;;;;;9.32;1.80;;;23.90;40.50;;;;;;5011350;28;20026;-56
2022/05/14 12:44:45;;;;;;;10.20;1.87;;;23.70;40.60;;;;;;5012058;28;21035;-54
2022/05/14 12:47:24;;;;;;;10.10;2.25;;;24.00;40.30;;;;;;5019632;28;20029;-55
2022/05/14 12:49:51;;;;;;;8.63;1.73;;;23.60;40.20;;;;;;5004303;28;20500;-55
2022/05/14 12:52:23;;;;;;;7.47;1.58;;;23.50;40.50;;;;;;5009308;28;20030;-60
2022/05/14 12:54:48;;;;;;;6.60;1.90;;;23.30;41.40;;;;;;5014557;28;20022;-54
2022/05/14 12:57:15;;;;;;;9.68;2.55;;;23.70;40.70;;;;;;5010378;28;20033;-53
2022/05/14 12:59:41;;;;;;;9.88;1.67;;;23.50;41.20;;;;;;5002484;28;20057;-55
2022/05/14 13:02:16;;;;;;;9.68;1.83;;;23.70;41.10;;;;;;5021819;28;20053;-55
2022/05/14 13:04:54;;;;;;;7.47;1.73;;;23.90;40.80;;;;;;5017860;28;20055;-56
2022/05/14 13:07:22;;;;;;;7.93;1.63;;;24.10;40.40;;;;;;5020812;28;20408;-55
2022/05/14 13:09:48;;;;;;;8.07;1.80;;;24.00;40.30;;;;;;5014385;28;20104;-55
2022/05/14 13:12:20;;;;;;;8.27;2.40;;;24.40;39.30;;;;;;5009798;28;20036;-54
2022/05/14 13:14:58;;;;;;;10.45;2.90;;;24.40;39.20;;;;;;5014448;28;20116;-54
2022/05/14 13:17:31;;;;;;;7.13;2.35;;;25.20;38.30;;;;;;5011082;28;20346;-56
2022/05/14 13:19:58;;;;;;;9.43;2.05;;;25.90;37.60;;;;;;5004521;28;20473;-55
2022/05/14 13:22:37;;;;;;;7.82;1.77;;;25.70;36.80;;;;;;5008544;28;20056;-55